Time;durP1;ratioP1;P1;durP2;ratioP2;P2;SDS_P1;SDS_P2;PMS_P1;PMS_P2;Temp;Humidity;BMP_temperature;BMP_pressure;BME280_temperature;BME280_humidity;BME280_pressure;Samples;Min_cycle;Max_cycle;Signal;HPM_P1;HPM_P2
2023/10/19 00:01:42;;;;;;;4.75;1.55;;;;;;;-145.69;67.65;52127.53;4986889;28;20245;-81
2023/10/19 00:04:10;;;;;;;3.28;1.70;;;;;;;-145.69;67.71;52133.47;4972708;28;20198;-80
2023/10/19 00:06:36;;;;;;;3.08;1.88;;;;;;;-145.69;67.67;52125.56;4972201;28;20221;-80
2023/10/19 00:09:03;;;;;;;2.97;1.50;;;;;;;-145.69;67.52;52099.81;4972945;28;20199;-80
2023/10/19 00:11:31;;;;;;;5.90;2.10;;;;;;;-145.69;68.63;52101.78;4971704;28;20454;-80
2023/10/19 00:13:57;;;;;;;2.83;1.67;;;;;;;-145.69;67.92;52129.50;4972549;28;20210;-80
2023/10/19 00:16:28;;;;;;;6.43;2.58;;;;;;;-145.69;67.85;52115.66;4972387;28;20315;-80
2023/10/19 00:19:00;;;;;;;5.47;2.25;;;;;;;-145.69;67.44;52107.72;4972301;28;20225;-80
2023/10/19 00:21:28;;;;;;;3.65;2.10;;;;;;;-145.69;67.42;52099.81;4972270;28;20230;-80
2023/10/19 00:23:56;;;;;;;4.28;2.17;;;;;;;-145.69;67.29;52111.69;4971948;28;20281;-80
2023/10/19 00:26:25;;;;;;;9.98;2.42;;;;;;;-145.69;67.26;52127.53;4971895;28;20584;-80
2023/10/19 00:28:53;;;;;;;6.55;2.25;;;;;;;-145.69;66.71;52143.38;4972099;28;20249;-81
2023/10/19 00:31:20;;;;;;;5.25;2.50;;;;;;;-145.69;67.42;52089.91;4972203;28;20213;-80
2023/10/19 00:33:47;;;;;;;5.43;2.17;;;;;;;-145.69;66.68;52107.72;4972208;28;20226;-80
2023/10/19 00:36:13;;;;;;;5.18;2.40;;;;;;;-145.69;66.47;52095.84;5059186;28;20234;-80
2023/10/19 00:38:51;;;;;;;5.93;2.30;;;;;;;-145.69;65.82;52115.66;4975665;28;20202;-80
2023/10/19 00:41:21;;;;;;;7.10;2.40;;;;;;;-145.69;65.43;52119.63;4970166;28;20229;-80
2023/10/19 00:43:49;;;;;;;9.55;2.20;;;;;;;-145.69;64.76;52087.94;4971542;28;20645;-80
2023/10/19 00:46:21;;;;;;;5.30;1.80;;;;;;;-145.69;64.37;52080.00;4971968;28;20629;-80
2023/10/19 00:48:50;;;;;;;5.30;1.88;;;;;;;-145.69;63.89;52101.78;4971686;28;20722;-81
2023/10/19 00:51:41;;;;;;;6.57;2.38;;;;;;;-145.69;63.92;52109.72;4972043;28;20240;-80
2023/10/19 00:54:14;;;;;;;4.80;2.10;;;;;;;-145.69;64.41;52091.88;4971194;28;20599;-80
2023/10/19 00:56:48;;;;;;;7.47;2.22;;;;;;;-145.69;64.14;52127.53;4971707;28;20245;-80
2023/10/19 00:59:23;;;;;;;9.13;2.45;;;;;;;-145.69;64.25;52087.94;4971545;28;20202;-81
2023/10/19 01:01:53;;;;;;;8.25;2.47;;;;;;;-145.69;64.25;52111.69;4971637;28;20225;-80
2023/10/19 01:04:22;;;;;;;5.75;1.90;;;;;;;-145.69;64.31;52076.03;4971497;28;20287;-80
2023/10/19 01:07:00;;;;;;;4.78;2.17;;;;;;;-145.69;64.49;52095.84;4971853;28;20210;-80
2023/10/19 01:09:29;;;;;;;6.65;2.42;;;;;;;-145.69;64.89;52103.78;4971350;28;20198;-80
2023/10/19 01:12:01;;;;;;;7.35;2.30;;;;;;;-145.69;64.85;52099.81;4969886;28;20583;-80
2023/10/19 01:14:29;;;;;;;8.60;2.40;;;;;;;-145.69;65.33;52105.75;4971574;28;20293;-80
2023/10/19 01:16:59;;;;;;;5.03;2.13;;;;;;;-145.69;65.07;52121.59;4969443;28;20285;-81
2023/10/19 01:19:27;;;;;;;6.68;2.40;;;;;;;-145.69;64.79;52103.78;4953829;28;20199;-80
2023/10/19 01:21:59;;;;;;;4.80;2.40;;;;;;;-145.69;64.71;52103.78;4971084;28;20230;-80
2023/10/19 01:24:39;;;;;;;8.57;2.22;;;;;;;-145.69;64.36;52103.78;4970553;28;20607;-80
2023/10/19 01:27:10;;;;;;;10.15;2.22;;;;;;;-145.69;64.19;52095.84;4971380;28;20194;-81
2023/10/19 01:29:37;;;;;;;6.97;2.33;;;;;;;-145.69;64.00;52115.66;4970791;28;20237;-81
2023/10/19 01:32:08;;;;;;;12.63;2.33;;;;;;;-145.69;64.81;52103.78;4971079;28;20198;-80
2023/10/19 01:34:35;;;;;;;6.78;2.53;;;;;;;-145.69;64.66;52121.59;4971362;28;20259;-80
2023/10/19 01:37:03;;;;;;;10.10;2.08;;;;;;;-145.69;64.38;52115.66;4971302;28;20317;-80
2023/10/19 01:39:32;;;;;;;7.65;1.83;;;;;;;-145.69;63.84;52103.78;4970764;28;20233;-80
2023/10/19 01:41:58;;;;;;;3.30;1.90;;;;;;;-145.69;63.67;52107.72;4971256;28;20227;-80
2023/10/19 01:44:25;;;;;;;3.60;2.15;;;;;;;-145.69;63.91;52121.59;4971324;28;20601;-80
2023/10/19 01:46:51;;;;;;;6.72;2.10;;;;;;;-145.69;64.21;52113.66;4971040;28;20202;-80
2023/10/19 01:49:25;;;;;;;4.13;2.10;;;;;;;-145.69;64.06;52107.72;4970634;28;20255;-79
2023/10/19 01:51:52;;;;;;;4.60;1.45;;;;;;;-145.69;64.49;52115.66;4971202;28;20228;-81
2023/10/19 01:54:22;;;;;;;3.80;1.90;;;;;;;-145.69;64.58;52119.63;4974300;28;20661;-80
2023/10/19 01:56:51;;;;;;;5.15;2.22;;;;;;;-145.69;64.17;52113.66;4974360;28;20307;-81
2023/10/19 01:59:17;;;;;;;9.65;2.13;;;;;;;-145.69;64.79;52076.03;4973631;28;20198;-81
2023/10/19 02:01:45;;;;;;;5.25;1.95;;;;;;;-145.69;64.21;52095.84;4974552;28;20230;-80
2023/10/19 02:04:13;;;;;;;5.43;2.10;;;;;;;-145.69;64.45;52099.81;4974445;28;20206;-81
2023/10/19 02:06:40;;;;;;;3.67;1.70;;;;;;;-145.69;63.52;52111.69;4988868;28;20198;-80
2023/10/19 02:09:21;;;;;;;11.77;2.20;;;;;;;-145.69;63.34;52111.69;4974215;28;20198;-81
2023/10/19 02:11:48;;;;;;;7.43;2.05;;;;;;;-145.69;62.99;52107.72;4974201;28;20577;-80
2023/10/19 02:14:18;;;;;;;3.78;1.73;;;;;;;-145.69;63.05;52076.03;4974152;28;20202;-81
2023/10/19 02:16:47;;;;;;;7.15;1.80;;;;;;;-145.69;62.69;52087.94;4974293;28;20676;-81
2023/10/19 02:19:14;;;;;;;5.85;1.85;;;;;;;-145.69;62.30;52121.59;4973663;28;20569;-81
2023/10/19 02:21:41;;;;;;;3.83;1.67;;;;;;;-145.69;62.43;52103.78;4974225;28;20248;-81
2023/10/19 02:24:08;;;;;;;6.53;2.03;;;;;;;-145.69;62.07;52097.84;4973382;28;20252;-81
2023/10/19 02:26:37;;;;;;;4.53;1.95;;;;;;;-145.69;62.06;52087.94;4974071;28;20199;-81
2023/10/19 02:29:07;;;;;;;6.55;2.30;;;;;;;-145.69;62.71;52093.88;4973839;28;20620;-81
2023/10/19 02:31:37;;;;;;;5.38;1.88;;;;;;;-145.69;62.34;52082.00;4973903;28;20214;-81
2023/10/19 02:34:04;;;;;;;6.55;1.83;;;;;;;-145.69;62.92;52093.88;5069625;28;20206;-81
2023/10/19 02:36:33;;;;;;;3.58;1.98;;;;;;;-145.69;62.91;52105.75;5075927;28;20238;-81
2023/10/19 02:39:07;;;;;;;5.30;2.13;;;;;;;-145.69;63.42;52103.78;5068099;28;20207;-81
2023/10/19 02:41:35;;;;;;;7.18;1.90;;;;;;;-145.69;63.65;52131.50;4973962;28;20271;-81
2023/10/19 02:44:02;;;;;;;4.15;2.03;;;;;;;-145.69;62.49;52113.66;4973513;28;20202;-81
2023/10/19 02:46:29;;;;;;;3.05;1.80;;;;;;;-145.69;62.96;52105.75;4973881;28;20208;-80
2023/10/19 02:48:57;;;;;;;4.63;1.70;;;;;;;-145.69;63.33;52121.59;4973717;28;20202;-81
2023/10/19 02:51:23;;;;;;;5.57;1.75;;;;;;;-145.69;63.73;52123.56;4973488;28;20206;-81
2023/10/19 02:53:49;;;;;;;2.67;1.60;;;;;;;-145.69;64.57;52129.50;4973420;28;20561;-81
2023/10/19 02:56:18;;;;;;;5.03;2.20;;;;;;;-145.69;64.98;52149.31;4973845;28;20202;-81
2023/10/19 02:58:48;;;;;;;2.42;1.77;;;;;;;-145.69;65.54;52099.81;4973408;28;20684;-80
2023/10/19 03:01:21;;;;;;;3.33;1.75;;;;;;;-145.69;65.24;52093.88;4973310;28;20206;-80
2023/10/19 03:03:49;;;;;;;2.28;1.70;;;;;;;-145.69;65.21;52133.47;4972927;28;20230;-81
2023/10/19 03:06:19;;;;;;;3.85;1.85;;;;;;;-145.69;65.34;52119.63;4973607;28;20619;-81
2023/10/19 03:08:46;;;;;;;4.95;1.90;;;;;;;-145.69;65.77;52125.56;4964501;28;20207;-81
2023/10/19 03:11:13;;;;;;;4.82;1.80;;;;;;;-145.69;65.71;52127.53;4971716;28;20201;-80
2023/10/19 03:13:40;;;;;;;3.08;1.73;;;;;;;-145.69;66.26;52145.34;4973753;28;20202;-81
2023/10/19 03:16:07;;;;;;;4.18;1.67;;;;;;;-145.69;66.43;52121.59;4973449;28;20214;-81
2023/10/19 03:18:34;;;;;;;3.55;2.08;;;;;;;-145.69;65.68;52125.56;4973032;28;20256;-81
2023/10/19 03:21:01;;;;;;;5.68;1.90;;;;;;;-145.69;66.93;52139.41;4973162;28;20206;-80
2023/10/19 03:23:29;;;;;;;3.33;1.65;;;;;;;-145.69;67.14;52147.34;4973017;28;20226;-80
2023/10/19 03:28:37;;;;;;;2.70;1.60;;;;;;;-145.69;67.82;52105.75;4972930;28;20599;-80
2023/10/19 03:31:04;;;;;;;3.22;1.83;;;;;;;-145.69;67.22;52135.47;4972837;28;20202;-81
2023/10/19 03:33:31;;;;;;;4.15;1.80;;;;;;;-145.69;67.80;52149.31;4972756;28;20553;-81
2023/10/19 03:35:58;;;;;;;3.50;1.98;;;;;;;-145.69;68.10;52139.41;4972872;28;20317;-81
2023/10/19 03:38:25;;;;;;;4.18;2.10;;;;;;;-145.69;68.45;52105.75;4972767;28;20285;-81
2023/10/19 03:40:59;;;;;;;2.63;1.90;;;;;;;-145.69;67.96;52133.47;4973007;28;20237;-81
2023/10/19 03:43:27;;;;;;;4.72;2.10;;;;;;;-145.69;68.21;52147.34;4972470;28;20226;-80
2023/10/19 03:45:54;;;;;;;3.72;1.73;;;;;;;-145.69;67.55;52159.22;4972927;28;20210;-80
2023/10/19 03:48:36;;;;;;;3.20;1.90;;;;;;;-145.69;67.97;52133.47;4973217;28;20213;-80
2023/10/19 03:51:03;;;;;;;4.10;1.92;;;;;;;-145.69;68.07;52147.34;4972675;28;20199;-80
2023/10/19 03:53:30;;;;;;;4.57;1.77;;;;;;;-145.69;67.88;52161.19;4971457;28;20208;-80
2023/10/19 03:55:58;;;;;;;5.07;1.88;;;;;;;-145.69;68.12;52133.47;4972693;28;20202;-80
2023/10/19 03:58:28;;;;;;;6.28;1.80;;;;;;;-145.69;68.23;52115.66;4972712;28;20650;-80
2023/10/19 04:01:01;;;;;;;2.95;1.88;;;;;;;-145.69;67.83;52111.69;4972879;28;20275;-80
2023/10/19 04:03:30;;;;;;;5.40;1.85;;;;;;;-145.69;67.66;52147.34;4972192;28;20230;-81
2023/10/19 04:06:00;;;;;;;3.72;1.95;;;;;;;-145.69;67.35;52117.63;4987000;28;20199;-80
2023/10/19 04:08:27;;;;;;;4.70;1.75;;;;;;;-145.69;67.90;52155.25;4972283;28;20206;-80
2023/10/19 04:13:36;;;;;;;2.92;1.70;;;;;;;-145.69;68.03;52151.28;4970915;28;20293;-80
2023/10/19 04:16:02;;;;;;;3.30;1.70;;;;;;;-145.69;68.18;52129.50;4971420;28;20202;-80
2023/10/19 04:18:29;;;;;;;6.05;2.00;;;;;;;-145.69;68.49;52131.50;4972337;28;20569;-80
2023/10/19 04:20:57;;;;;;;5.40;1.98;;;;;;;-145.69;68.02;52177.03;4971998;28;20208;-80
2023/10/19 04:23:27;;;;;;;3.08;1.75;;;;;;;-145.69;68.13;52127.53;4971714;28;20230;-81
2023/10/19 04:25:57;;;;;;;3.47;1.75;;;;;;;-145.69;67.91;52143.38;4972052;28;20290;-80
2023/10/19 04:28:30;;;;;;;2.65;1.85;;;;;;;-145.69;68.58;52151.28;4972182;28;20209;-80
2023/10/19 04:31:02;;;;;;;6.28;1.92;;;;;;;-145.69;68.11;52117.63;4972150;28;20209;-80
2023/10/19 04:33:29;;;;;;;2.03;1.63;;;;;;;-145.69;68.17;52159.22;4971528;28;20226;-80
2023/10/19 04:35:59;;;;;;;3.97;1.70;;;;;;;-145.69;68.52;52155.25;4972084;28;20230;-81
2023/10/19 04:38:26;;;;;;;3.95;1.70;;;;;;;-145.69;68.09;52139.41;4972029;28;20210;-80
2023/10/19 04:40:52;;;;;;;7.40;1.80;;;;;;;-145.69;68.51;52127.53;4971778;28;20202;-80
2023/10/19 04:43:21;;;;;;;2.38;1.40;;;;;;;-145.69;68.06;52129.50;5044700;28;20700;-80
2023/10/19 04:45:47;;;;;;;3.15;1.92;;;;;;;-145.69;68.80;52109.72;4971505;28;20450;-81
2023/10/19 04:48:16;;;;;;;5.95;1.70;;;;;;;-145.69;68.31;52127.53;4971608;28;20585;-80
2023/10/19 04:50:42;;;;;;;3.25;1.65;;;;;;;-145.69;68.28;52125.56;4971177;28;20210;-80
2023/10/19 04:53:09;;;;;;;2.55;1.70;;;;;;;-145.69;68.37;52123.56;4971511;28;20665;-80
2023/10/19 04:55:35;;;;;;;2.78;1.58;;;;;;;-145.69;67.97;52171.09;4971752;28;20206;-81
2023/10/19 04:58:02;;;;;;;2.33;1.27;;;;;;;-145.69;67.33;52135.47;4971951;28;20206;-80
2023/10/19 05:00:28;;;;;;;3.80;1.67;;;;;;;-145.69;67.77;52111.69;4971337;28;20198;-80
2023/10/19 05:02:55;;;;;;;3.13;1.20;;;;;;;-145.69;65.58;52123.56;4958543;28;20226;-79
2023/10/19 05:05:22;;;;;;;2.53;1.20;;;;;;;-145.69;65.75;52117.63;4966771;28;20205;-80
2023/10/19 05:07:52;;;;;;;5.30;1.20;;;;;;;-145.69;65.29;52115.66;4971304;28;20269;-80
2023/10/19 05:10:19;;;;;;;2.80;1.40;;;;;;;-145.69;65.58;52131.50;4971760;28;20668;-80
2023/10/19 05:12:46;;;;;;;1.90;1.30;;;;;;;-145.69;65.53;52145.34;4970947;28;20293;-80
2023/10/19 05:15:12;;;;;;;2.05;1.30;;;;;;;-145.69;65.51;52139.41;4971338;28;20795;-79
2023/10/19 05:17:39;;;;;;;2.88;1.50;;;;;;;-145.69;65.56;52135.47;4971566;28;20267;-80
2023/10/19 05:20:07;;;;;;;2.33;1.40;;;;;;;-145.69;65.96;52105.75;4971174;28;20201;-80
2023/10/19 05:22:35;;;;;;;2.08;1.60;;;;;;;-145.69;65.88;52135.47;4971408;28;20639;-80
2023/10/19 05:25:02;;;;;;;4.43;1.30;;;;;;;-145.69;65.33;52099.81;4971183;28;20661;-80
2023/10/19 05:27:28;;;;;;;2.03;1.30;;;;;;;-145.69;65.54;52115.66;4970914;28;20202;-80
2023/10/19 05:29:55;;;;;;;3.10;1.40;;;;;;;-145.69;65.29;52135.47;4971450;28;20210;-80
2023/10/19 05:32:21;;;;;;;2.15;1.23;;;;;;;-145.69;65.63;52119.63;4971244;28;20198;-80
2023/10/19 05:34:48;;;;;;;2.70;1.40;;;;;;;-145.69;65.63;52129.50;4971042;28;20731;-80
2023/10/19 05:37:16;;;;;;;1.73;1.20;;;;;;;-145.69;65.05;52125.56;4970825;28;20265;-81
2023/10/19 05:39:45;;;;;;;1.90;1.10;;;;;;;-145.69;64.91;52155.25;4970649;28;20629;-80
2023/10/19 05:42:11;;;;;;;1.95;0.90;;;;;;;-145.69;64.85;52131.50;4970851;28;20203;-80
2023/10/19 05:44:38;;;;;;;1.98;1.17;;;;;;;-145.69;64.53;52139.41;4971097;28;20205;-80
2023/10/19 05:47:05;;;;;;;1.70;0.98;;;;;;;-145.69;64.39;52143.38;4970339;28;20213;-80
2023/10/19 05:49:33;;;;;;;4.22;1.27;;;;;;;-145.69;64.19;52115.66;4971029;28;20198;-80
2023/10/19 05:52:00;;;;;;;1.42;1.15;;;;;;;-145.69;64.29;52137.44;4970975;28;20202;-80
2023/10/19 05:54:26;;;;;;;4.35;1.27;;;;;;;-145.69;64.13;52139.41;4970922;28;20206;-81
2023/10/19 05:56:55;;;;;;;4.07;1.40;;;;;;;-145.69;63.65;52101.78;4971007;28;20509;-80
2023/10/19 05:59:23;;;;;;;1.73;1.00;;;;;;;-145.69;63.11;52093.88;4970476;28;20225;-81
2023/10/19 06:01:51;;;;;;;1.55;1.13;;;;;;;-145.69;62.26;52129.50;4970875;28;20687;-80
2023/10/19 06:04:18;;;;;;;3.53;1.15;;;;;;;-145.69;61.99;52099.81;4970257;28;20309;-80
2023/10/19 06:06:44;;;;;;;3.88;1.27;;;;;;;-145.69;61.43;52131.50;4984606;28;20649;-81
2023/10/19 06:09:11;;;;;;;2.00;1.23;;;;;;;-145.69;60.88;52091.88;4970368;28;20218;-81
2023/10/19 06:11:42;;;;;;;2.85;1.10;;;;;;;-145.69;60.64;52103.78;4951700;28;20199;-80
2023/10/19 06:14:25;;;;;;;2.28;1.42;;;;;;;-145.69;60.44;52135.47;4953711;28;20237;-81
2023/10/19 06:16:52;;;;;;;4.35;1.60;;;;;;;-145.69;60.67;52131.50;4970533;28;20202;-81
2023/10/19 06:19:19;;;;;;;3.15;1.45;;;;;;;-145.69;60.49;52115.66;4970516;28;20209;-81
2023/10/19 06:21:45;;;;;;;1.95;1.20;;;;;;;-145.69;60.63;52123.56;4970143;28;20214;-80
2023/10/19 06:24:14;;;;;;;2.90;1.40;;;;;;;-145.69;60.45;52103.78;4970120;28;20697;-79
2023/10/19 06:26:43;;;;;;;4.07;1.20;;;;;;;-145.69;60.54;52121.59;4970641;28;20232;-80
2023/10/19 06:29:12;;;;;;;3.17;1.52;;;;;;;-145.69;60.63;52123.56;4970374;28;20230;-79
2023/10/19 06:31:40;;;;;;;3.10;1.55;;;;;;;-145.69;60.99;52119.63;4966768;28;20556;-81
2023/10/19 06:34:06;;;;;;;1.73;1.30;;;;;;;-145.69;61.64;52107.72;4970452;28;20203;-80
2023/10/19 06:36:33;;;;;;;2.13;0.88;;;;;;;-145.69;61.31;52115.66;4970173;28;20705;-80
2023/10/19 06:39:05;;;;;;;3.75;0.93;;;;;;;-145.69;61.60;52087.94;4970916;28;20245;-80
2023/10/19 06:41:33;;;;;;;2.88;1.50;;;;;;;-145.69;62.17;52107.72;4973413;28;20198;-80
2023/10/19 06:44:01;;;;;;;2.40;1.00;;;;;;;-145.69;62.23;52135.47;4973893;28;20280;-80
2023/10/19 06:46:27;;;;;;;3.85;1.00;;;;;;;-145.69;62.74;52127.53;4982707;28;20202;-80
2023/10/19 06:48:59;;;;;;;3.15;1.15;;;;;;;-145.69;62.69;52115.66;4973483;28;20205;-81
2023/10/19 06:51:27;;;;;;;2.35;1.17;;;;;;;-145.69;62.89;52123.56;4973774;28;20213;-80
2023/10/19 06:53:53;;;;;;;3.97;1.88;;;;;;;-145.69;63.21;52103.78;4974007;28;20233;-80
2023/10/19 06:56:20;;;;;;;2.33;1.55;;;;;;;-145.69;62.87;52083.97;4973575;28;20209;-80
2023/10/19 06:58:46;;;;;;;3.28;1.50;;;;;;;-145.69;63.03;52119.63;4956285;28;20203;-80
2023/10/19 07:01:16;;;;;;;1.48;0.80;;;;;;;-145.69;62.97;52101.78;4954456;28;20570;-81
2023/10/19 07:03:43;;;;;;;4.80;1.38;;;;;;;-145.69;62.29;52115.66;4954628;28;20227;-81
2023/10/19 07:06:13;;;;;;;8.80;1.92;;;;;;;-145.69;62.05;52083.97;4957565;28;20225;-80
2023/10/19 07:08:40;;;;;;;2.08;1.33;;;;;;;-145.69;61.49;52085.94;4973581;28;20206;-81
2023/10/19 07:11:07;;;;;;;3.47;1.10;;;;;;;-145.69;61.83;52085.94;4973202;28;20729;-80
2023/10/19 07:13:34;;;;;;;2.05;1.02;;;;;;;-145.69;61.34;52076.03;4973496;28;20210;-80
2023/10/19 07:16:00;;;;;;;1.63;1.20;;;;;;;-145.69;61.11;52089.91;4972959;28;20210;-80
2023/10/19 07:18:28;;;;;;;2.70;1.58;;;;;;;-145.69;60.63;52083.97;4973468;28;20206;-80
2023/10/19 07:21:02;;;;;;;1.73;0.98;;;;;;;-145.69;60.04;52093.88;4973298;28;20202;-80
2023/10/19 07:23:30;;;;;;;3.25;0.90;;;;;;;-145.69;58.76;52091.88;4973151;28;20228;-80
2023/10/19 07:25:59;;;;;;;3.03;0.80;;;;;;;-145.69;57.75;52085.94;4972990;28;20199;-81
2023/10/19 07:28:27;;;;;;;1.23;1.00;;;;;;;-145.69;56.62;52107.72;4973026;28;20213;-81
2023/10/19 07:30:54;;;;;;;2.22;1.10;;;;;;;-145.69;56.04;52107.72;4973074;28;20206;-81
2023/10/19 07:33:20;;;;;;;1.90;1.05;;;;;;;-145.69;55.85;52068.13;4973266;28;20217;-80
2023/10/19 07:35:52;;;;;;;3.38;1.05;;;;;;;-145.69;56.17;52095.84;4972374;28;20632;-80
2023/10/19 07:38:20;;;;;;;3.53;1.60;;;;;;;-145.69;55.06;52068.13;4972957;28;20206;-81
2023/10/19 07:40:52;;;;;;;2.50;1.10;;;;;;;-145.69;54.95;52034.47;4972869;28;20206;-80
2023/10/19 07:43:19;;;;;;;1.98;1.00;;;;;;;-145.69;54.94;52064.16;4972931;28;20230;-81
2023/10/19 07:45:46;;;;;;;2.42;1.20;;;;;;;-145.69;54.11;52078.03;4972674;28;20303;-81
2023/10/19 07:48:15;;;;;;;3.90;1.67;;;;;;;-145.69;54.32;52048.31;4971907;28;20286;-80
2023/10/19 07:50:42;;;;;;;2.42;1.05;;;;;;;-145.69;53.94;52064.16;4972748;28;20205;-81
2023/10/19 07:53:10;;;;;;;2.92;1.05;;;;;;;-145.69;53.17;52082.00;4973023;28;20206;-80
2023/10/19 07:55:38;;;;;;;3.30;1.30;;;;;;;-145.69;53.61;52026.53;4972509;28;20229;-81
2023/10/19 07:58:07;;;;;;;3.72;1.23;;;;;;;-145.69;52.84;52044.38;4983325;28;20256;-81
2023/10/19 08:00:34;;;;;;;2.65;1.15;;;;;;;-145.69;53.12;52072.09;4974040;28;20286;-80
2023/10/19 08:03:01;;;;;;;2.03;0.70;;;;;;;-145.69;52.33;52060.22;4972105;28;20232;-81
2023/10/19 08:05:28;;;;;;;2.38;0.85;;;;;;;-145.69;52.39;52028.53;4972536;28;20206;-80
2023/10/19 08:07:57;;;;;;;1.45;0.90;;;;;;;-145.69;52.42;52056.25;4972840;28;20206;-81
2023/10/19 08:10:23;;;;;;;2.00;0.93;;;;;;;-145.69;52.06;52040.41;4972602;28;20561;-80
2023/10/19 08:12:51;;;;;;;3.83;1.00;;;;;;;-145.69;51.95;52054.25;4972220;28;20198;-80
2023/10/19 08:15:21;;;;;;;0.95;0.70;;;;;;;-145.69;52.09;52026.53;4972551;28;20241;-80
2023/10/19 08:17:49;;;;;;;1.85;0.85;;;;;;;-145.69;52.14;52028.53;4971584;28;20665;-80
2023/10/19 08:20:24;;;;;;;1.33;0.60;;;;;;;-145.69;52.76;52052.28;4972570;28;20214;-80
2023/10/19 08:22:50;;;;;;;1.25;0.75;;;;;;;-145.69;52.29;52034.47;4972599;28;20216;-80
2023/10/19 08:25:18;;;;;;;1.50;0.70;;;;;;;-145.69;51.83;52026.53;4972233;28;20234;-80
2023/10/19 08:27:48;;;;;;;3.03;0.88;;;;;;;-145.69;51.68;52030.50;4973052;28;20195;-80
2023/10/19 08:30:17;;;;;;;1.45;0.70;;;;;;;-145.69;51.60;52046.34;4973250;28;20293;-80
2023/10/19 08:32:47;;;;;;;0.57;0.50;;;;;;;-145.69;51.67;52016.66;4972213;28;20206;-80
2023/10/19 08:35:14;;;;;;;1.55;0.60;;;;;;;-145.69;51.21;52032.47;4974288;28;20782;-81
2023/10/19 08:37:41;;;;;;;1.02;0.50;;;;;;;-145.69;50.90;52050.31;4976704;28;20195;-80
2023/10/19 08:40:14;;;;;;;1.17;0.82;;;;;;;-145.69;51.48;52000.81;4974595;28;20209;-80
2023/10/19 08:42:41;;;;;;;0.63;0.52;;;;;;;-145.69;51.13;52024.56;4974360;28;20234;-80
2023/10/19 08:45:08;;;;;;;3.47;1.08;;;;;;;-145.69;52.14;52006.75;4972730;28;20230;-80
2023/10/19 08:47:36;;;;;;;1.77;0.90;;;;;;;-145.69;51.33;52032.47;4978476;28;20645;-80
2023/10/19 08:50:05;;;;;;;1.58;1.02;;;;;;;-145.69;52.53;52020.59;4969306;28;20206;-81
2023/10/19 08:52:33;;;;;;;3.20;0.60;;;;;;;-145.69;51.96;52048.31;4975518;28;20252;-80
2023/10/19 08:55:00;;;;;;;1.42;0.60;;;;;;;-145.69;51.86;52052.28;4974925;28;20199;-80
2023/10/19 08:57:28;;;;;;;0.55;0.50;;;;;;;-145.69;51.33;52050.31;4973670;28;20202;-81
2023/10/19 08:59:58;;;;;;;0.88;0.57;;;;;;;-145.69;51.61;52026.53;4972494;28;20542;-81
2023/10/19 09:02:24;;;;;;;0.93;0.60;;;;;;;-145.69;50.68;52026.53;4973537;28;20198;-80
2023/10/19 09:04:51;;;;;;;1.05;0.50;;;;;;;-145.69;50.09;52030.50;4973095;28;20265;-81
2023/10/19 09:07:19;;;;;;;0.98;0.50;;;;;;;-145.69;50.10;51996.84;4974459;28;20288;-81
2023/10/19 09:09:47;;;;;;;1.88;0.70;;;;;;;-145.69;50.27;52022.59;4972588;28;20229;-79
2023/10/19 09:12:14;;;;;;;1.00;0.50;;;;;;;-145.69;49.83;52018.63;4974025;28;20198;-80
2023/10/19 09:14:41;;;;;;;0.43;0.40;;;;;;;-145.69;50.00;52008.72;4976364;28;20232;-81
2023/10/19 09:17:09;;;;;;;1.48;0.50;;;;;;;-145.69;50.46;52010.69;4975209;28;20566;-80
2023/10/19 09:19:40;;;;;;;0.82;0.50;;;;;;;-145.69;50.55;52024.56;4973796;28;20255;-80
2023/10/19 09:22:16;;;;;;;0.68;0.43;;;;;;;-145.69;50.45;52012.69;4974459;28;20302;-81
2023/10/19 09:24:45;;;;;;;2.70;0.38;;;;;;;-145.69;50.67;52038.44;4973760;28;20225;-80
2023/10/19 09:27:12;;;;;;;0.50;0.50;;;;;;;-145.69;50.87;52016.66;4972048;28;20259;-80
2023/10/19 09:29:38;;;;;;;1.35;0.30;;;;;;;-145.69;51.40;52024.56;4972530;28;20216;-81
2023/10/19 09:32:06;;;;;;;0.57;0.45;;;;;;;-145.69;51.30;52016.66;4973455;28;20213;-81
2023/10/19 09:34:33;;;;;;;1.20;0.40;;;;;;;-145.69;51.25;52026.53;4973676;28;20202;-81
2023/10/19 09:37:01;;;;;;;0.45;0.40;;;;;;;-145.69;50.62;51975.06;4972892;28;20238;-80
2023/10/19 09:39:34;;;;;;;0.40;0.30;;;;;;;-145.69;50.64;52036.44;4972205;28;20210;-80
2023/10/19 09:42:05;;;;;;;0.30;0.30;;;;;;;-145.69;51.02;51992.88;4974254;28;20240;-81
2023/10/19 09:44:39;;;;;;;1.05;0.40;;;;;;;-145.69;50.72;52010.69;4973080;28;20230;-81
2023/10/19 09:47:12;;;;;;;0.20;0.20;;;;;;;-145.69;50.10;52036.44;4972681;28;20561;-80
2023/10/19 09:49:39;;;;;;;0.40;0.40;;;;;;;-145.69;51.26;52028.53;4971684;28;20213;-80
2023/10/19 09:52:07;;;;;;;0.68;0.30;;;;;;;-145.69;52.24;52038.44;4972192;28;20664;-80
2023/10/19 09:54:47;;;;;;;1.05;0.30;;;;;;;-145.69;51.88;52008.72;4973188;28;20591;-82
2023/10/19 09:57:20;;;;;;;0.30;0.30;;;;;;;-145.69;52.29;52050.31;4986785;28;20557;-81
2023/10/19 09:59:52;;;;;;;0.93;0.50;;;;;;;-145.69;52.23;52048.31;4970956;28;20202;-80
2023/10/19 10:02:22;;;;;;;1.63;0.60;;;;;;;-145.69;52.57;52006.75;4971201;28;20660;-80
2023/10/19 10:04:48;;;;;;;2.33;0.50;;;;;;;-145.69;52.72;52032.47;4969480;28;20265;-80
2023/10/19 10:07:16;;;;;;;1.30;0.90;;;;;;;-145.69;52.89;52010.69;4971655;28;20226;-81
2023/10/19 10:09:44;;;;;;;0.60;0.60;;;;;;;-145.69;52.97;52036.44;4972312;28;20267;-80
2023/10/19 10:12:23;;;;;;;1.15;0.70;;;;;;;-145.69;52.51;52006.75;4971881;28;20199;-81
2023/10/19 10:14:58;;;;;;;2.45;1.00;;;;;;;-145.69;52.59;52048.31;4973728;28;20198;-80
2023/10/19 10:17:26;;;;;;;2.30;0.90;;;;;;;-145.69;52.95;52036.44;4975314;28;20684;-81
2023/10/19 10:19:56;;;;;;;1.98;1.10;;;;;;;-145.69;52.68;52012.69;4974295;28;20195;-81
2023/10/19 10:22:23;;;;;;;1.10;0.55;;;;;;;-145.69;53.58;52020.59;4974619;28;20202;-81
2023/10/19 10:24:55;;;;;;;1.40;0.98;;;;;;;-145.69;53.33;52028.53;4973946;28;20587;-80
2023/10/19 10:27:23;;;;;;;2.75;1.38;;;;;;;-145.69;52.99;52036.44;4974421;28;20202;-80
2023/10/19 10:29:58;;;;;;;3.90;1.33;;;;;;;-145.69;53.30;52018.63;4973012;28;20561;-80
2023/10/19 10:32:43;;;;;;;5.20;2.00;;;;;;;-145.69;53.50;52004.75;4973818;28;20194;-80
2023/10/19 10:35:12;;;;;;;9.40;1.70;;;;;;;-145.69;54.25;52032.47;4972668;28;20241;-81
2023/10/19 10:37:39;;;;;;;2.60;1.50;;;;;;;-145.69;54.50;52060.22;4973910;28;20288;-80
2023/10/19 10:40:07;;;;;;;1.42;0.80;;;;;;;-145.69;55.32;51996.84;4983263;28;20199;-80
2023/10/19 10:42:35;;;;;;;3.70;1.33;;;;;;;-145.69;55.94;52040.41;4994132;28;20206;-81
2023/10/19 10:45:05;;;;;;;1.52;0.60;;;;;;;-145.69;56.42;52032.47;4962457;28;20222;-80
2023/10/19 10:47:33;;;;;;;1.05;0.60;;;;;;;-145.69;56.22;52050.31;4973430;28;20194;-80
2023/10/19 10:50:01;;;;;;;0.65;0.60;;;;;;;-145.69;56.78;52028.53;4972864;28;20213;-80
2023/10/19 10:52:30;;;;;;;2.50;0.70;;;;;;;-145.69;56.77;52046.34;4973444;28;20217;-80
2023/10/19 10:54:56;;;;;;;1.40;0.60;;;;;;;-145.69;56.60;52018.63;4960286;28;20216;-80
2023/10/19 10:57:24;;;;;;;1.40;0.60;;;;;;;-145.69;56.91;52036.44;4973586;28;20198;-81
2023/10/19 11:00:04;;;;;;;1.23;0.70;;;;;;;-145.69;56.64;52024.56;4973059;28;20210;-80
2023/10/19 11:02:32;;;;;;;0.82;0.50;;;;;;;-145.69;56.90;52064.16;4973195;28;20606;-80
2023/10/19 11:05:00;;;;;;;0.60;0.50;;;;;;;-145.69;56.57;52036.44;4973071;28;20722;-81
2023/10/19 11:07:26;;;;;;;1.38;0.40;;;;;;;-145.69;56.68;52008.72;4973464;28;20194;-80
2023/10/19 11:09:53;;;;;;;0.40;0.40;;;;;;;-145.69;56.63;52050.31;4973541;28;20202;-80
2023/10/19 11:12:20;;;;;;;1.05;0.52;;;;;;;-145.69;56.88;52024.56;4973189;28;20206;-81
2023/10/19 11:14:54;;;;;;;1.05;0.73;;;;;;;-145.69;56.68;52004.75;4973373;28;20229;-81
2023/10/19 11:17:28;;;;;;;0.95;0.55;;;;;;;-145.69;56.73;52020.59;4973565;28;20221;-80
2023/10/19 11:19:56;;;;;;;5.68;1.10;;;;;;;-145.69;56.88;52028.53;4973397;28;20280;-81
2023/10/19 11:22:24;;;;;;;0.77;0.50;;;;;;;-145.69;56.52;52032.47;4973262;28;20289;-81
2023/10/19 11:24:52;;;;;;;1.13;0.70;;;;;;;-145.69;56.55;52020.59;4972792;28;20308;-80
2023/10/19 11:27:26;;;;;;;1.85;0.60;;;;;;;-145.69;56.19;52012.69;4973097;28;20206;-80
2023/10/19 11:29:56;;;;;;;1.52;0.50;;;;;;;-145.69;56.60;52038.44;4973315;28;20201;-80